sensor_id;sensor_type;location;lat;lon;timestamp;P1;durP1;ratioP1;P2;durP2;ratioP2
48765;SDS011;65794;51.836;5.002;2023-04-15T00:01:39;14.15;;;6.55;;
48765;SDS011;65794;51.836;5.002;2023-04-15T00:04:06;11.60;;;5.95;;
48765;SDS011;65794;51.836;5.002;2023-04-15T00:06:33;12.88;;;6.18;;
48765;SDS011;65794;51.836;5.002;2023-04-15T00:09:00;15.20;;;6.05;;
48765;SDS011;65794;51.836;5.002;2023-04-15T00:11:28;13.93;;;5.90;;
48765;SDS011;65794;51.836;5.002;2023-04-15T00:13:55;9.30;;;5.70;;
48765;SDS011;65794;51.836;5.002;2023-04-15T00:16:22;13.35;;;5.82;;
48765;SDS011;65794;51.836;5.002;2023-04-15T00:18:49;12.95;;;6.18;;
48765;SDS011;65794;51.836;5.002;2023-04-15T00:21:15;19.17;;;5.93;;
48765;SDS011;65794;51.836;5.002;2023-04-15T00:23:42;13.13;;;6.10;;
48765;SDS011;65794;51.836;5.002;2023-04-15T00:26:09;12.57;;;6.20;;
48765;SDS011;65794;51.836;5.002;2023-04-15T00:28:36;13.88;;;5.88;;
48765;SDS011;65794;51.836;5.002;2023-04-15T00:31:04;15.40;;;6.60;;
48765;SDS011;65794;51.836;5.002;2023-04-15T00:33:31;14.18;;;6.25;;
48765;SDS011;65794;51.836;5.002;2023-04-15T00:35:58;14.65;;;6.63;;
48765;SDS011;65794;51.836;5.002;2023-04-15T00:38:25;13.80;;;6.60;;
48765;SDS011;65794;51.836;5.002;2023-04-15T00:40:52;15.38;;;6.40;;
48765;SDS011;65794;51.836;5.002;2023-04-15T00:43:19;14.50;;;6.72;;
48765;SDS011;65794;51.836;5.002;2023-04-15T00:45:50;15.48;;;6.22;;
48765;SDS011;65794;51.836;5.002;2023-04-15T00:48:17;13.60;;;6.82;;
48765;SDS011;65794;51.836;5.002;2023-04-15T00:50:44;12.80;;;6.50;;
48765;SDS011;65794;51.836;5.002;2023-04-15T00:53:11;16.42;;;6.45;;
48765;SDS011;65794;51.836;5.002;2023-04-15T00:55:38;15.90;;;6.47;;
48765;SDS011;65794;51.836;5.002;2023-04-15T00:58:05;15.43;;;6.57;;
48765;SDS011;65794;51.836;5.002;2023-04-15T01:00:32;15.50;;;6.97;;
48765;SDS011;65794;51.836;5.002;2023-04-15T01:03:00;17.63;;;6.68;;
48765;SDS011;65794;51.836;5.002;2023-04-15T01:05:27;15.30;;;6.53;;
48765;SDS011;65794;51.836;5.002;2023-04-15T01:07:55;11.68;;;6.38;;
48765;SDS011;65794;51.836;5.002;2023-04-15T01:10:22;20.27;;;7.28;;
48765;SDS011;65794;51.836;5.002;2023-04-15T01:12:49;12.48;;;6.32;;
48765;SDS011;65794;51.836;5.002;2023-04-15T01:15:15;16.65;;;7.93;;
48765;SDS011;65794;51.836;5.002;2023-04-15T01:17:42;20.80;;;7.68;;
48765;SDS011;65794;51.836;5.002;2023-04-15T01:20:09;16.70;;;7.30;;
48765;SDS011;65794;51.836;5.002;2023-04-15T01:22:37;16.85;;;7.72;;
48765;SDS011;65794;51.836;5.002;2023-04-15T01:25:09;14.43;;;7.80;;
48765;SDS011;65794;51.836;5.002;2023-04-15T01:27:38;18.77;;;7.72;;
48765;SDS011;65794;51.836;5.002;2023-04-15T01:30:06;14.98;;;7.55;;
48765;SDS011;65794;51.836;5.002;2023-04-15T01:32:33;18.38;;;7.57;;
48765;SDS011;65794;51.836;5.002;2023-04-15T01:35:18;13.20;;;7.13;;
48765;SDS011;65794;51.836;5.002;2023-04-15T01:37:46;15.07;;;7.50;;
48765;SDS011;65794;51.836;5.002;2023-04-15T01:40:15;14.98;;;7.70;;
48765;SDS011;65794;51.836;5.002;2023-04-15T01:42:44;20.65;;;7.50;;
48765;SDS011;65794;51.836;5.002;2023-04-15T01:45:12;13.85;;;7.95;;
48765;SDS011;65794;51.836;5.002;2023-04-15T01:47:41;15.93;;;7.63;;
48765;SDS011;65794;51.836;5.002;2023-04-15T01:50:09;17.27;;;8.60;;
48765;SDS011;65794;51.836;5.002;2023-04-15T01:52:38;17.63;;;8.75;;
48765;SDS011;65794;51.836;5.002;2023-04-15T01:55:06;12.73;;;7.65;;
48765;SDS011;65794;51.836;5.002;2023-04-15T01:57:35;14.60;;;8.20;;
48765;SDS011;65794;51.836;5.002;2023-04-15T02:00:03;18.25;;;8.85;;
48765;SDS011;65794;51.836;5.002;2023-04-15T02:02:39;15.77;;;7.80;;
48765;SDS011;65794;51.836;5.002;2023-04-15T02:05:08;16.55;;;7.57;;
48765;SDS011;65794;51.836;5.002;2023-04-15T02:07:37;14.48;;;7.18;;
48765;SDS011;65794;51.836;5.002;2023-04-15T02:10:05;15.02;;;7.50;;
48765;SDS011;65794;51.836;5.002;2023-04-15T02:12:35;17.90;;;7.43;;
48765;SDS011;65794;51.836;5.002;2023-04-15T02:15:04;19.98;;;8.05;;
48765;SDS011;65794;51.836;5.002;2023-04-15T02:17:35;18.05;;;7.88;;
48765;SDS011;65794;51.836;5.002;2023-04-15T02:20:04;14.43;;;7.32;;
48765;SDS011;65794;51.836;5.002;2023-04-15T02:22:33;14.18;;;6.85;;
48765;SDS011;65794;51.836;5.002;2023-04-15T02:25:02;16.15;;;7.82;;
48765;SDS011;65794;51.836;5.002;2023-04-15T02:27:34;14.85;;;6.88;;
48765;SDS011;65794;51.836;5.002;2023-04-15T02:30:06;19.52;;;7.13;;
48765;SDS011;65794;51.836;5.002;2023-04-15T02:32:35;14.57;;;6.78;;
48765;SDS011;65794;51.836;5.002;2023-04-15T02:35:05;14.85;;;7.03;;
48765;SDS011;65794;51.836;5.002;2023-04-15T02:37:35;14.43;;;7.13;;
48765;SDS011;65794;51.836;5.002;2023-04-15T02:40:09;13.85;;;7.28;;
48765;SDS011;65794;51.836;5.002;2023-04-15T02:42:40;15.65;;;7.82;;
48765;SDS011;65794;51.836;5.002;2023-04-15T02:45:12;15.93;;;6.75;;
48765;SDS011;65794;51.836;5.002;2023-04-15T02:47:41;18.48;;;7.55;;
48765;SDS011;65794;51.836;5.002;2023-04-15T02:50:11;16.90;;;7.53;;
48765;SDS011;65794;51.836;5.002;2023-04-15T02:52:42;14.98;;;7.43;;
48765;SDS011;65794;51.836;5.002;2023-04-15T02:55:11;15.30;;;7.55;;
48765;SDS011;65794;51.836;5.002;2023-04-15T02:57:43;17.27;;;7.25;;
48765;SDS011;65794;51.836;5.002;2023-04-15T03:00:11;13.48;;;7.47;;
48765;SDS011;65794;51.836;5.002;2023-04-15T03:02:45;17.20;;;7.10;;
48765;SDS011;65794;51.836;5.002;2023-04-15T03:05:13;15.75;;;7.70;;
48765;SDS011;65794;51.836;5.002;2023-04-15T03:07:48;14.30;;;7.75;;
48765;SDS011;65794;51.836;5.002;2023-04-15T03:10:16;19.17;;;8.02;;
48765;SDS011;65794;51.836;5.002;2023-04-15T03:12:46;16.90;;;7.40;;
48765;SDS011;65794;51.836;5.002;2023-04-15T03:15:18;14.38;;;7.25;;
48765;SDS011;65794;51.836;5.002;2023-04-15T03:17:49;16.67;;;7.68;;
48765;SDS011;65794;51.836;5.002;2023-04-15T03:20:17;13.73;;;7.15;;
48765;SDS011;65794;51.836;5.002;2023-04-15T03:22:48;15.98;;;7.32;;
48765;SDS011;65794;51.836;5.002;2023-04-15T03:25:16;19.33;;;6.97;;
48765;SDS011;65794;51.836;5.002;2023-04-15T03:27:44;16.20;;;7.05;;
48765;SDS011;65794;51.836;5.002;2023-04-15T03:30:13;14.43;;;6.82;;
48765;SDS011;65794;51.836;5.002;2023-04-15T03:32:41;16.75;;;7.13;;
48765;SDS011;65794;51.836;5.002;2023-04-15T03:35:10;13.02;;;6.85;;
48765;SDS011;65794;51.836;5.002;2023-04-15T03:37:37;11.93;;;6.72;;
48765;SDS011;65794;51.836;5.002;2023-04-15T03:40:06;18.65;;;7.28;;
48765;SDS011;65794;51.836;5.002;2023-04-15T03:42:35;14.68;;;7.22;;
48765;SDS011;65794;51.836;5.002;2023-04-15T03:45:04;14.15;;;6.47;;
48765;SDS011;65794;51.836;5.002;2023-04-15T03:47:32;17.58;;;6.80;;
48765;SDS011;65794;51.836;5.002;2023-04-15T03:50:00;14.10;;;6.75;;
48765;SDS011;65794;51.836;5.002;2023-04-15T03:52:28;12.65;;;6.70;;
48765;SDS011;65794;51.836;5.002;2023-04-15T03:54:56;12.30;;;6.85;;
48765;SDS011;65794;51.836;5.002;2023-04-15T03:57:24;15.88;;;7.50;;
48765;SDS011;65794;51.836;5.002;2023-04-15T03:59:53;16.38;;;7.60;;
48765;SDS011;65794;51.836;5.002;2023-04-15T04:02:21;15.38;;;7.07;;
48765;SDS011;65794;51.836;5.002;2023-04-15T04:04:50;14.77;;;7.40;;
48765;SDS011;65794;51.836;5.002;2023-04-15T04:07:22;15.55;;;6.47;;
48765;SDS011;65794;51.836;5.002;2023-04-15T04:10:01;18.10;;;6.90;;
48765;SDS011;65794;51.836;5.002;2023-04-15T04:12:32;15.93;;;6.60;;
48765;SDS011;65794;51.836;5.002;2023-04-15T04:15:02;17.58;;;7.22;;
48765;SDS011;65794;51.836;5.002;2023-04-15T04:17:30;12.02;;;6.57;;
48765;SDS011;65794;51.836;5.002;2023-04-15T04:19:58;16.30;;;6.85;;
48765;SDS011;65794;51.836;5.002;2023-04-15T04:22:26;12.73;;;6.35;;
48765;SDS011;65794;51.836;5.002;2023-04-15T04:24:58;14.82;;;7.13;;
48765;SDS011;65794;51.836;5.002;2023-04-15T04:27:27;15.80;;;7.00;;
48765;SDS011;65794;51.836;5.002;2023-04-15T04:29:55;16.90;;;7.35;;
48765;SDS011;65794;51.836;5.002;2023-04-15T04:32:23;12.32;;;7.18;;
48765;SDS011;65794;51.836;5.002;2023-04-15T04:34:51;17.88;;;7.57;;
48765;SDS011;65794;51.836;5.002;2023-04-15T04:37:19;15.10;;;7.53;;
48765;SDS011;65794;51.836;5.002;2023-04-15T04:39:47;12.93;;;6.75;;
48765;SDS011;65794;51.836;5.002;2023-04-15T04:42:15;13.85;;;6.80;;
48765;SDS011;65794;51.836;5.002;2023-04-15T04:44:43;17.17;;;7.60;;
48765;SDS011;65794;51.836;5.002;2023-04-15T04:47:11;14.75;;;7.60;;
48765;SDS011;65794;51.836;5.002;2023-04-15T04:49:40;12.63;;;6.68;;
48765;SDS011;65794;51.836;5.002;2023-04-15T04:52:09;14.45;;;7.45;;
48765;SDS011;65794;51.836;5.002;2023-04-15T04:54:37;19.70;;;7.80;;
48765;SDS011;65794;51.836;5.002;2023-04-15T04:57:05;17.48;;;7.55;;
48765;SDS011;65794;51.836;5.002;2023-04-15T04:59:34;17.20;;;7.80;;
48765;SDS011;65794;51.836;5.002;2023-04-15T05:02:05;13.85;;;7.28;;
48765;SDS011;65794;51.836;5.002;2023-04-15T05:04:34;15.95;;;7.78;;
48765;SDS011;65794;51.836;5.002;2023-04-15T05:07:02;17.63;;;7.65;;
48765;SDS011;65794;51.836;5.002;2023-04-15T05:09:30;16.00;;;7.18;;
48765;SDS011;65794;51.836;5.002;2023-04-15T05:11:59;17.83;;;7.30;;
48765;SDS011;65794;51.836;5.002;2023-04-15T05:14:28;13.95;;;7.68;;
48765;SDS011;65794;51.836;5.002;2023-04-15T05:16:56;15.98;;;7.85;;
48765;SDS011;65794;51.836;5.002;2023-04-15T05:19:24;13.38;;;7.20;;
48765;SDS011;65794;51.836;5.002;2023-04-15T05:21:52;15.85;;;7.43;;
48765;SDS011;65794;51.836;5.002;2023-04-15T05:24:20;19.08;;;7.03;;
48765;SDS011;65794;51.836;5.002;2023-04-15T05:26:49;23.05;;;8.85;;
48765;SDS011;65794;51.836;5.002;2023-04-15T05:29:17;16.55;;;7.45;;
48765;SDS011;65794;51.836;5.002;2023-04-15T05:31:45;16.50;;;7.75;;
48765;SDS011;65794;51.836;5.002;2023-04-15T05:34:13;13.25;;;7.22;;
48765;SDS011;65794;51.836;5.002;2023-04-15T05:36:43;14.95;;;7.82;;
48765;SDS011;65794;51.836;5.002;2023-04-15T05:39:11;15.38;;;7.32;;
48765;SDS011;65794;51.836;5.002;2023-04-15T05:41:39;15.25;;;7.50;;
48765;SDS011;65794;51.836;5.002;2023-04-15T05:44:08;14.90;;;7.15;;
48765;SDS011;65794;51.836;5.002;2023-04-15T05:46:36;13.18;;;7.03;;
48765;SDS011;65794;51.836;5.002;2023-04-15T05:49:04;17.02;;;7.25;;
48765;SDS011;65794;51.836;5.002;2023-04-15T05:51:32;13.35;;;7.57;;
48765;SDS011;65794;51.836;5.002;2023-04-15T05:54:01;17.17;;;7.35;;
48765;SDS011;65794;51.836;5.002;2023-04-15T05:56:29;14.27;;;7.07;;
48765;SDS011;65794;51.836;5.002;2023-04-15T05:58:58;15.70;;;7.65;;
48765;SDS011;65794;51.836;5.002;2023-04-15T06:01:29;16.92;;;7.65;;
48765;SDS011;65794;51.836;5.002;2023-04-15T06:03:57;14.20;;;7.57;;
48765;SDS011;65794;51.836;5.002;2023-04-15T06:06:25;14.38;;;6.60;;
48765;SDS011;65794;51.836;5.002;2023-04-15T06:08:54;17.80;;;7.60;;
48765;SDS011;65794;51.836;5.002;2023-04-15T06:11:22;14.10;;;7.32;;
48765;SDS011;65794;51.836;5.002;2023-04-15T06:13:50;17.08;;;7.97;;
48765;SDS011;65794;51.836;5.002;2023-04-15T06:16:18;13.63;;;7.80;;
48765;SDS011;65794;51.836;5.002;2023-04-15T06:18:46;14.77;;;8.07;;
48765;SDS011;65794;51.836;5.002;2023-04-15T06:21:14;12.75;;;7.22;;
48765;SDS011;65794;51.836;5.002;2023-04-15T06:23:43;14.30;;;7.35;;
48765;SDS011;65794;51.836;5.002;2023-04-15T06:26:11;16.40;;;8.27;;
48765;SDS011;65794;51.836;5.002;2023-04-15T06:28:39;14.80;;;7.47;;
48765;SDS011;65794;51.836;5.002;2023-04-15T06:31:07;12.48;;;7.03;;
48765;SDS011;65794;51.836;5.002;2023-04-15T06:33:35;17.77;;;7.32;;
48765;SDS011;65794;51.836;5.002;2023-04-15T06:36:03;12.45;;;7.18;;
48765;SDS011;65794;51.836;5.002;2023-04-15T06:38:31;13.02;;;7.75;;
48765;SDS011;65794;51.836;5.002;2023-04-15T06:41:00;17.35;;;7.70;;
48765;SDS011;65794;51.836;5.002;2023-04-15T06:43:28;13.52;;;7.05;;
48765;SDS011;65794;51.836;5.002;2023-04-15T06:45:56;12.48;;;7.00;;
48765;SDS011;65794;51.836;5.002;2023-04-15T06:48:25;14.90;;;7.80;;
48765;SDS011;65794;51.836;5.002;2023-04-15T06:50:53;12.63;;;7.38;;
48765;SDS011;65794;51.836;5.002;2023-04-15T06:53:21;13.50;;;7.32;;
48765;SDS011;65794;51.836;5.002;2023-04-15T06:55:49;11.65;;;7.53;;
48765;SDS011;65794;51.836;5.002;2023-04-15T06:58:19;13.90;;;7.85;;
48765;SDS011;65794;51.836;5.002;2023-04-15T07:00:47;13.32;;;7.30;;
48765;SDS011;65794;51.836;5.002;2023-04-15T07:03:15;14.02;;;7.80;;
48765;SDS011;65794;51.836;5.002;2023-04-15T07:05:43;13.82;;;7.72;;
48765;SDS011;65794;51.836;5.002;2023-04-15T07:08:11;12.73;;;7.80;;
48765;SDS011;65794;51.836;5.002;2023-04-15T07:10:40;14.30;;;8.32;;
48765;SDS011;65794;51.836;5.002;2023-04-15T07:13:08;12.50;;;7.30;;
48765;SDS011;65794;51.836;5.002;2023-04-15T07:15:37;14.85;;;7.90;;
48765;SDS011;65794;51.836;5.002;2023-04-15T07:18:05;12.52;;;7.00;;
48765;SDS011;65794;51.836;5.002;2023-04-15T07:20:33;15.50;;;7.03;;
48765;SDS011;65794;51.836;5.002;2023-04-15T07:23:01;12.32;;;7.60;;
48765;SDS011;65794;51.836;5.002;2023-04-15T07:28:21;12.02;;;7.70;;
48765;SDS011;65794;51.836;5.002;2023-04-15T07:30:49;13.25;;;7.63;;
48765;SDS011;65794;51.836;5.002;2023-04-15T07:33:17;11.60;;;7.13;;
48765;SDS011;65794;51.836;5.002;2023-04-15T07:35:45;11.60;;;7.90;;
48765;SDS011;65794;51.836;5.002;2023-04-15T07:38:13;11.93;;;8.35;;
48765;SDS011;65794;51.836;5.002;2023-04-15T07:40:42;15.00;;;7.70;;
48765;SDS011;65794;51.836;5.002;2023-04-15T07:43:13;11.45;;;7.07;;
48765;SDS011;65794;51.836;5.002;2023-04-15T07:45:44;9.95;;;6.88;;
48765;SDS011;65794;51.836;5.002;2023-04-15T07:48:12;11.00;;;7.43;;
48765;SDS011;65794;51.836;5.002;2023-04-15T07:50:40;12.15;;;6.75;;
48765;SDS011;65794;51.836;5.002;2023-04-15T07:53:08;11.35;;;6.88;;
48765;SDS011;65794;51.836;5.002;2023-04-15T07:55:36;9.50;;;6.70;;
48765;SDS011;65794;51.836;5.002;2023-04-15T07:58:04;11.45;;;6.22;;
48765;SDS011;65794;51.836;5.002;2023-04-15T08:00:32;11.88;;;6.57;;
48765;SDS011;65794;51.836;5.002;2023-04-15T08:03:00;11.95;;;6.93;;
48765;SDS011;65794;51.836;5.002;2023-04-15T08:05:29;13.02;;;6.20;;
48765;SDS011;65794;51.836;5.002;2023-04-15T08:07:57;10.80;;;6.93;;
48765;SDS011;65794;51.836;5.002;2023-04-15T08:10:25;10.07;;;6.93;;
48765;SDS011;65794;51.836;5.002;2023-04-15T08:12:54;12.93;;;7.20;;
48765;SDS011;65794;51.836;5.002;2023-04-15T08:15:22;10.13;;;6.15;;
48765;SDS011;65794;51.836;5.002;2023-04-15T08:17:50;9.98;;;6.65;;
48765;SDS011;65794;51.836;5.002;2023-04-15T08:20:18;10.38;;;6.40;;
48765;SDS011;65794;51.836;5.002;2023-04-15T08:22:46;11.63;;;6.45;;
48765;SDS011;65794;51.836;5.002;2023-04-15T08:25:18;9.40;;;6.18;;
48765;SDS011;65794;51.836;5.002;2023-04-15T08:27:49;8.80;;;5.95;;
48765;SDS011;65794;51.836;5.002;2023-04-15T08:30:17;10.32;;;6.38;;
48765;SDS011;65794;51.836;5.002;2023-04-15T08:32:46;10.48;;;6.93;;
48765;SDS011;65794;51.836;5.002;2023-04-15T08:35:14;10.15;;;6.15;;
48765;SDS011;65794;51.836;5.002;2023-04-15T08:37:42;9.65;;;6.38;;
48765;SDS011;65794;51.836;5.002;2023-04-15T08:40:10;10.45;;;5.72;;
48765;SDS011;65794;51.836;5.002;2023-04-15T08:42:46;11.18;;;6.28;;
48765;SDS011;65794;51.836;5.002;2023-04-15T08:45:15;12.65;;;6.28;;
48765;SDS011;65794;51.836;5.002;2023-04-15T08:47:45;10.13;;;6.13;;
48765;SDS011;65794;51.836;5.002;2023-04-15T08:50:15;12.40;;;6.85;;
48765;SDS011;65794;51.836;5.002;2023-04-15T08:52:44;14.25;;;7.40;;
48765;SDS011;65794;51.836;5.002;2023-04-15T08:55:12;11.48;;;6.68;;
48765;SDS011;65794;51.836;5.002;2023-04-15T08:57:40;10.73;;;6.35;;
48765;SDS011;65794;51.836;5.002;2023-04-15T09:00:08;9.77;;;5.82;;
48765;SDS011;65794;51.836;5.002;2023-04-15T09:02:37;10.00;;;5.88;;
48765;SDS011;65794;51.836;5.002;2023-04-15T09:05:06;10.55;;;5.03;;
48765;SDS011;65794;51.836;5.002;2023-04-15T09:07:34;8.18;;;4.85;;
48765;SDS011;65794;51.836;5.002;2023-04-15T09:10:03;7.68;;;4.40;;
48765;SDS011;65794;51.836;5.002;2023-04-15T09:12:33;11.32;;;4.78;;
48765;SDS011;65794;51.836;5.002;2023-04-15T09:15:01;8.93;;;4.93;;
48765;SDS011;65794;51.836;5.002;2023-04-15T09:17:33;10.68;;;5.18;;
48765;SDS011;65794;51.836;5.002;2023-04-15T09:22:36;7.25;;;4.15;;
48765;SDS011;65794;51.836;5.002;2023-04-15T09:27:48;7.15;;;4.68;;
48765;SDS011;65794;51.836;5.002;2023-04-15T09:30:16;5.10;;;3.40;;
48765;SDS011;65794;51.836;5.002;2023-04-15T09:33:03;6.70;;;3.45;;
48765;SDS011;65794;51.836;5.002;2023-04-15T09:35:35;7.57;;;3.67;;
48765;SDS011;65794;51.836;5.002;2023-04-15T09:38:04;6.55;;;3.75;;
48765;SDS011;65794;51.836;5.002;2023-04-15T09:43:04;8.90;;;3.60;;
48765;SDS011;65794;51.836;5.002;2023-04-15T09:45:33;6.57;;;3.20;;
48765;SDS011;65794;51.836;5.002;2023-04-15T09:50:58;5.20;;;2.72;;
48765;SDS011;65794;51.836;5.002;2023-04-15T09:53:27;6.47;;;2.85;;
48765;SDS011;65794;51.836;5.002;2023-04-15T09:55:58;5.03;;;2.63;;
48765;SDS011;65794;51.836;5.002;2023-04-15T09:58:30;4.30;;;2.60;;
48765;SDS011;65794;51.836;5.002;2023-04-15T10:00:59;6.65;;;2.60;;
48765;SDS011;65794;51.836;5.002;2023-04-15T10:03:29;5.85;;;2.67;;
48765;SDS011;65794;51.836;5.002;2023-04-15T10:05:59;6.97;;;3.25;;
48765;SDS011;65794;51.836;5.002;2023-04-15T10:08:30;5.35;;;3.00;;
48765;SDS011;65794;51.836;5.002;2023-04-15T10:11:01;8.50;;;3.03;;
48765;SDS011;65794;51.836;5.002;2023-04-15T10:13:30;5.95;;;2.83;;
48765;SDS011;65794;51.836;5.002;2023-04-15T10:16:10;8.07;;;3.10;;
48765;SDS011;65794;51.836;5.002;2023-04-15T10:21:06;7.90;;;2.88;;
48765;SDS011;65794;51.836;5.002;2023-04-15T10:23:35;4.88;;;2.90;;
48765;SDS011;65794;51.836;5.002;2023-04-15T10:26:03;4.50;;;2.70;;
48765;SDS011;65794;51.836;5.002;2023-04-15T10:28:31;5.65;;;2.55;;
48765;SDS011;65794;51.836;5.002;2023-04-15T10:30:59;3.55;;;1.85;;
48765;SDS011;65794;51.836;5.002;2023-04-15T10:33:28;4.50;;;2.30;;
48765;SDS011;65794;51.836;5.002;2023-04-15T10:35:56;4.80;;;1.95;;
48765;SDS011;65794;51.836;5.002;2023-04-15T10:41:15;5.75;;;2.22;;
48765;SDS011;65794;51.836;5.002;2023-04-15T10:46:40;4.38;;;1.80;;
48765;SDS011;65794;51.836;5.002;2023-04-15T10:49:11;4.35;;;1.90;;
48765;SDS011;65794;51.836;5.002;2023-04-15T10:51:40;4.60;;;2.13;;
48765;SDS011;65794;51.836;5.002;2023-04-15T10:54:12;4.28;;;2.08;;
48765;SDS011;65794;51.836;5.002;2023-04-15T10:56:41;4.47;;;2.10;;
48765;SDS011;65794;51.836;5.002;2023-04-15T10:59:10;4.65;;;2.08;;
48765;SDS011;65794;51.836;5.002;2023-04-15T11:07:13;4.53;;;2.13;;
48765;SDS011;65794;51.836;5.002;2023-04-15T11:09:41;5.18;;;2.22;;
48765;SDS011;65794;51.836;5.002;2023-04-15T11:12:09;4.88;;;2.28;;
48765;SDS011;65794;51.836;5.002;2023-04-15T11:14:39;6.25;;;2.80;;
48765;SDS011;65794;51.836;5.002;2023-04-15T11:17:08;5.40;;;2.65;;
48765;SDS011;65794;51.836;5.002;2023-04-15T11:19:36;4.43;;;2.40;;
48765;SDS011;65794;51.836;5.002;2023-04-15T11:22:06;3.45;;;1.90;;
48765;SDS011;65794;51.836;5.002;2023-04-15T11:24:35;4.50;;;1.90;;
48765;SDS011;65794;51.836;5.002;2023-04-15T11:27:03;5.82;;;2.22;;
48765;SDS011;65794;51.836;5.002;2023-04-15T11:29:31;4.07;;;2.10;;
48765;SDS011;65794;51.836;5.002;2023-04-15T11:32:07;5.25;;;2.20;;
48765;SDS011;65794;51.836;5.002;2023-04-15T11:34:36;3.60;;;2.15;;
48765;SDS011;65794;51.836;5.002;2023-04-15T11:37:04;5.25;;;1.95;;
48765;SDS011;65794;51.836;5.002;2023-04-15T11:39:33;5.07;;;2.83;;
48765;SDS011;65794;51.836;5.002;2023-04-15T11:42:01;10.18;;;2.50;;
48765;SDS011;65794;51.836;5.002;2023-04-15T11:44:29;6.43;;;2.22;;
48765;SDS011;65794;51.836;5.002;2023-04-15T11:46:57;5.15;;;2.85;;
48765;SDS011;65794;51.836;5.002;2023-04-15T11:49:28;3.83;;;2.10;;
48765;SDS011;65794;51.836;5.002;2023-04-15T11:51:56;6.38;;;3.10;;
48765;SDS011;65794;51.836;5.002;2023-04-15T11:54:23;5.20;;;2.67;;
48765;SDS011;65794;51.836;5.002;2023-04-15T11:56:50;4.97;;;3.30;;
48765;SDS011;65794;51.836;5.002;2023-04-15T11:59:18;5.53;;;2.85;;
48765;SDS011;65794;51.836;5.002;2023-04-15T12:01:45;5.32;;;2.90;;
48765;SDS011;65794;51.836;5.002;2023-04-15T12:04:14;8.70;;;2.72;;
48765;SDS011;65794;51.836;5.002;2023-04-15T12:06:43;4.18;;;2.20;;
48765;SDS011;65794;51.836;5.002;2023-04-15T12:09:10;5.57;;;2.47;;
48765;SDS011;65794;51.836;5.002;2023-04-15T12:11:41;4.10;;;2.05;;
48765;SDS011;65794;51.836;5.002;2023-04-15T12:14:19;4.65;;;2.55;;
48765;SDS011;65794;51.836;5.002;2023-04-15T12:16:47;5.53;;;2.50;;
48765;SDS011;65794;51.836;5.002;2023-04-15T12:19:22;4.30;;;2.50;;
48765;SDS011;65794;51.836;5.002;2023-04-15T12:21:50;5.22;;;2.55;;
48765;SDS011;65794;51.836;5.002;2023-04-15T12:24:18;6.93;;;3.00;;
48765;SDS011;65794;51.836;5.002;2023-04-15T12:26:47;6.13;;;3.70;;
48765;SDS011;65794;51.836;5.002;2023-04-15T12:29:14;4.45;;;2.83;;
48765;SDS011;65794;51.836;5.002;2023-04-15T12:31:46;6.20;;;2.15;;
48765;SDS011;65794;51.836;5.002;2023-04-15T12:34:13;6.78;;;1.77;;
48765;SDS011;65794;51.836;5.002;2023-04-15T12:36:40;3.40;;;1.90;;
48765;SDS011;65794;51.836;5.002;2023-04-15T12:39:06;4.13;;;1.95;;
48765;SDS011;65794;51.836;5.002;2023-04-15T12:41:33;2.67;;;1.67;;
48765;SDS011;65794;51.836;5.002;2023-04-15T12:44:00;4.70;;;1.67;;
48765;SDS011;65794;51.836;5.002;2023-04-15T12:46:27;2.92;;;1.50;;
48765;SDS011;65794;51.836;5.002;2023-04-15T12:48:54;3.45;;;1.40;;
48765;SDS011;65794;51.836;5.002;2023-04-15T12:51:21;2.85;;;1.23;;
48765;SDS011;65794;51.836;5.002;2023-04-15T12:53:48;6.22;;;1.38;;
48765;SDS011;65794;51.836;5.002;2023-04-15T12:56:15;3.13;;;1.25;;
48765;SDS011;65794;51.836;5.002;2023-04-15T12:58:45;2.50;;;1.20;;
48765;SDS011;65794;51.836;5.002;2023-04-15T13:01:12;3.33;;;1.23;;
48765;SDS011;65794;51.836;5.002;2023-04-15T13:03:39;3.28;;;1.40;;
48765;SDS011;65794;51.836;5.002;2023-04-15T13:06:06;3.92;;;1.75;;
48765;SDS011;65794;51.836;5.002;2023-04-15T13:08:33;3.30;;;1.65;;
48765;SDS011;65794;51.836;5.002;2023-04-15T13:11:05;4.40;;;1.80;;
48765;SDS011;65794;51.836;5.002;2023-04-15T13:13:32;5.35;;;2.03;;
48765;SDS011;65794;51.836;5.002;2023-04-15T13:15:59;4.38;;;1.70;;
48765;SDS011;65794;51.836;5.002;2023-04-15T13:18:26;3.58;;;1.75;;
48765;SDS011;65794;51.836;5.002;2023-04-15T13:20:53;4.88;;;1.92;;
48765;SDS011;65794;51.836;5.002;2023-04-15T13:23:20;4.45;;;1.95;;
48765;SDS011;65794;51.836;5.002;2023-04-15T13:25:47;4.55;;;1.42;;
48765;SDS011;65794;51.836;5.002;2023-04-15T13:28:14;4.65;;;1.60;;
48765;SDS011;65794;51.836;5.002;2023-04-15T13:30:41;4.03;;;1.38;;
48765;SDS011;65794;51.836;5.002;2023-04-15T13:33:09;2.97;;;1.20;;
48765;SDS011;65794;51.836;5.002;2023-04-15T13:35:36;4.10;;;1.52;;
48765;SDS011;65794;51.836;5.002;2023-04-15T13:38:03;3.83;;;1.00;;
48765;SDS011;65794;51.836;5.002;2023-04-15T13:40:30;2.67;;;1.30;;
48765;SDS011;65794;51.836;5.002;2023-04-15T13:42:57;3.97;;;1.52;;
48765;SDS011;65794;51.836;5.002;2023-04-15T13:45:25;3.90;;;1.38;;
48765;SDS011;65794;51.836;5.002;2023-04-15T13:47:52;6.60;;;1.52;;
48765;SDS011;65794;51.836;5.002;2023-04-15T13:50:21;3.45;;;1.25;;
48765;SDS011;65794;51.836;5.002;2023-04-15T13:52:48;3.78;;;0.73;;
48765;SDS011;65794;51.836;5.002;2023-04-15T13:55:15;5.53;;;1.20;;
48765;SDS011;65794;51.836;5.002;2023-04-15T13:57:47;4.00;;;1.10;;
48765;SDS011;65794;51.836;5.002;2023-04-15T14:00:14;4.72;;;1.00;;
48765;SDS011;65794;51.836;5.002;2023-04-15T14:02:41;3.05;;;0.70;;
48765;SDS011;65794;51.836;5.002;2023-04-15T14:05:09;2.40;;;1.17;;
48765;SDS011;65794;51.836;5.002;2023-04-15T14:07:36;3.63;;;1.23;;
48765;SDS011;65794;51.836;5.002;2023-04-15T14:10:03;7.70;;;1.10;;
48765;SDS011;65794;51.836;5.002;2023-04-15T14:12:30;6.47;;;1.42;;
48765;SDS011;65794;51.836;5.002;2023-04-15T14:14:57;6.30;;;1.30;;
48765;SDS011;65794;51.836;5.002;2023-04-15T14:17:24;3.13;;;1.40;;
48765;SDS011;65794;51.836;5.002;2023-04-15T14:19:51;2.67;;;1.23;;
48765;SDS011;65794;51.836;5.002;2023-04-15T14:22:17;5.57;;;1.20;;
48765;SDS011;65794;51.836;5.002;2023-04-15T14:24:44;4.07;;;1.70;;
48765;SDS011;65794;51.836;5.002;2023-04-15T14:27:11;5.88;;;1.00;;
48765;SDS011;65794;51.836;5.002;2023-04-15T14:29:39;5.32;;;1.45;;
48765;SDS011;65794;51.836;5.002;2023-04-15T14:32:06;5.28;;;1.40;;
48765;SDS011;65794;51.836;5.002;2023-04-15T14:34:38;4.90;;;1.10;;
48765;SDS011;65794;51.836;5.002;2023-04-15T14:37:05;8.55;;;1.08;;
48765;SDS011;65794;51.836;5.002;2023-04-15T14:39:31;3.53;;;1.27;;
48765;SDS011;65794;51.836;5.002;2023-04-15T14:41:58;3.50;;;0.95;;
48765;SDS011;65794;51.836;5.002;2023-04-15T14:44:26;3.40;;;1.08;;
48765;SDS011;65794;51.836;5.002;2023-04-15T14:46:52;3.40;;;1.30;;
48765;SDS011;65794;51.836;5.002;2023-04-15T14:49:20;3.85;;;1.10;;
48765;SDS011;65794;51.836;5.002;2023-04-15T14:51:47;4.55;;;1.23;;
48765;SDS011;65794;51.836;5.002;2023-04-15T14:54:14;5.53;;;1.00;;
48765;SDS011;65794;51.836;5.002;2023-04-15T14:56:41;5.25;;;1.23;;
48765;SDS011;65794;51.836;5.002;2023-04-15T14:59:07;3.45;;;0.98;;
48765;SDS011;65794;51.836;5.002;2023-04-15T15:01:34;3.25;;;0.70;;
48765;SDS011;65794;51.836;5.002;2023-04-15T15:04:01;2.17;;;0.60;;
48765;SDS011;65794;51.836;5.002;2023-04-15T15:06:29;3.47;;;0.80;;
48765;SDS011;65794;51.836;5.002;2023-04-15T15:08:56;2.35;;;0.75;;
48765;SDS011;65794;51.836;5.002;2023-04-15T15:11:23;2.80;;;0.90;;
48765;SDS011;65794;51.836;5.002;2023-04-15T15:13:51;4.70;;;0.88;;
48765;SDS011;65794;51.836;5.002;2023-04-15T15:16:17;3.85;;;1.17;;